Annandale, New York
Current Conditions -  °F | °C
As of 4:53 PM on Sunday 23 Nov 2014 (Local Time) from KPOU Reporting Station
Clear Clear  
Wind Chill: 54°   Ceiling: Unl
Heat Index: 54°   Visibility: 10mi
Dew Point: 26°   Wind: 7mph
Humidity: 34%   Direction: 160°SSE
Pressure: 30.11"   Gusts: NA
Location:  42.0124°N, 73.8998°W
Report Text: KPOU 232153Z 16006KT 10SM CLR 12/M03 A3011 RMK AO2 SLP193 T01221033
Loading
Personal Weather Stations






























Interactive Weather Map New forecast layout! Learn more

10-Day Weather Forecast

Advertisements
Track Severe Weather on mobile